Time;durP1;ratioP1;P1;durP2;ratioP2;P2;SDS_P1;SDS_P2;PMS_P1;PMS_P2;Temp;Humidity;BMP_temperature;BMP_pressure;BME280_temperature;BME280_humidity;BME280_pressure;Samples;Min_cycle;Max_cycle;Signal;HPM_P1;HPM_P2
2023/02/19 00:01:38;;;;;;;0.17;0.08;;;21.60;48.70;;;;;;5007133;28;20596;-53
2023/02/19 00:04:11;;;;;;;0.90;0.10;;;21.60;48.70;;;;;;5009593;28;20466;-51
2023/02/19 00:06:41;;;;;;;3.78;0.10;;;21.60;48.70;;;;;;5006965;28;20569;-51
2023/02/19 00:09:10;;;;;;;0.85;0.10;;;21.60;48.80;;;;;;5007556;28;20046;-53
2023/02/19 00:11:41;;;;;;;1.35;0.10;;;21.60;48.80;;;;;;5007001;28;20038;-53
2023/02/19 00:14:10;;;;;;;3.85;0.10;;;21.60;48.80;;;;;;5009109;28;20048;-51
2023/02/19 00:16:39;;;;;;;0.10;0.10;;;21.60;48.80;;;;;;5007135;28;20066;-52
2023/02/19 00:19:13;;;;;;;1.65;0.43;;;21.60;48.90;;;;;;5007094;28;20069;-50
2023/02/19 00:21:44;;;;;;;3.22;0.13;;;21.60;48.90;;;;;;5006743;28;20080;-51
2023/02/19 00:24:14;;;;;;;4.25;0.10;;;21.50;48.90;;;;;;5007081;28;20042;-52
2023/02/19 00:26:43;;;;;;;3.97;0.10;;;21.60;48.90;;;;;;5008882;28;20034;-50
2023/02/19 00:29:13;;;;;;;1.77;0.10;;;21.60;48.90;;;;;;5006365;28;20053;-53
2023/02/19 00:31:42;;;;;;;0.10;0.10;;;21.60;49.00;;;;;;5007156;28;20046;-51
2023/02/19 00:34:10;;;;;;;0.20;0.10;;;21.50;48.90;;;;;;5010531;28;20076;-52
2023/02/19 00:36:39;;;;;;;1.25;0.35;;;21.50;49.00;;;;;;5006294;28;20046;-53
2023/02/19 00:39:14;;;;;;;0.45;0.10;;;21.50;49.00;;;;;;5007273;28;20553;-55
2023/02/19 00:41:44;;;;;;;2.35;0.10;;;21.60;49.20;;;;;;5006593;28;20736;-54
2023/02/19 00:44:12;;;;;;;0.68;0.00;;;21.50;49.10;;;;;;5020921;28;20048;-51
2023/02/19 00:46:41;;;;;;;0.75;0.10;;;21.50;49.20;;;;;;5006442;28;20041;-54
2023/02/19 00:49:14;;;;;;;0.20;0.10;;;21.50;49.20;;;;;;5005275;28;20077;-55
2023/02/19 00:51:41;;;;;;;1.33;0.10;;;21.50;49.30;;;;;;5006273;28;20092;-49
2023/02/19 00:54:10;;;;;;;2.15;0.10;;;21.50;49.30;;;;;;5004809;28;20049;-50
2023/02/19 00:56:37;;;;;;;3.40;0.10;;;21.50;49.40;;;;;;5004838;28;20050;-49
2023/02/19 00:59:06;;;;;;;0.98;0.95;;;21.50;49.30;;;;;;5004061;28;20076;-50
2023/02/19 01:01:33;;;;;;;0.08;0.00;;;21.50;49.40;;;;;;5004653;28;20144;-51
2023/02/19 01:04:02;;;;;;;0.43;0.10;;;21.50;49.40;;;;;;5007608;28;20046;-52
2023/02/19 01:06:31;;;;;;;0.25;0.10;;;21.50;49.50;;;;;;5004485;28;20564;-50
2023/02/19 01:08:59;;;;;;;0.47;0.10;;;21.50;49.40;;;;;;5006489;28;20105;-50
2023/02/19 01:11:28;;;;;;;1.35;0.10;;;21.50;49.50;;;;;;5005984;28;20514;-49
2023/02/19 01:13:57;;;;;;;1.35;0.32;;;21.50;50.10;;;;;;5005509;28;20041;-51
2023/02/19 01:16:28;;;;;;;0.25;0.10;;;21.50;49.50;;;;;;5004564;28;20042;-51
2023/02/19 01:18:57;;;;;;;0.43;0.10;;;21.50;49.50;;;;;;5005894;28;20057;-50
2023/02/19 01:21:30;;;;;;;0.10;0.10;;;21.50;49.60;;;;;;5005729;28;20041;-52
2023/02/19 01:23:59;;;;;;;1.65;0.10;;;21.50;49.70;;;;;;5004245;28;20041;-52
2023/02/19 01:26:28;;;;;;;0.57;0.10;;;21.50;49.70;;;;;;5007229;28;20050;-50
2023/02/19 01:28:55;;;;;;;0.68;0.10;;;21.50;49.70;;;;;;5005555;28;20128;-50
2023/02/19 01:31:25;;;;;;;0.10;0.10;;;21.50;49.70;;;;;;5004400;28;20046;-51
2023/02/19 01:33:56;;;;;;;0.28;0.10;;;21.40;49.70;;;;;;5010596;28;20053;-52
2023/02/19 01:36:24;;;;;;;0.52;0.10;;;21.50;49.90;;;;;;5005409;28;20069;-49
2023/02/19 01:38:54;;;;;;;0.10;0.10;;;21.40;49.80;;;;;;5006151;28;20038;-48
2023/02/19 01:41:23;;;;;;;0.88;0.13;;;21.40;49.80;;;;;;5005677;28;20532;-51
2023/02/19 01:44:01;;;;;;;0.30;0.10;;;21.40;49.90;;;;;;5003897;28;20057;-52
2023/02/19 01:46:29;;;;;;;6.32;0.10;;;21.40;49.90;;;;;;5004019;28;20069;-51
2023/02/19 01:49:03;;;;;;;0.95;0.20;;;21.40;50.00;;;;;;5005187;28;20038;-54
2023/02/19 01:51:32;;;;;;;0.10;0.10;;;21.40;50.00;;;;;;5004757;28;20069;-53
2023/02/19 01:54:05;;;;;;;0.20;0.20;;;21.40;50.00;;;;;;5005197;28;20092;-51
2023/02/19 01:56:37;;;;;;;0.30;0.20;;;21.40;50.00;;;;;;5020037;28;20458;-51
2023/02/19 01:59:07;;;;;;;0.47;0.20;;;21.40;50.00;;;;;;5005908;28;20050;-52
2023/02/19 02:01:37;;;;;;;0.10;0.10;;;21.40;50.00;;;;;;5020611;28;20048;-55
2023/02/19 02:04:09;;;;;;;0.40;0.10;;;21.40;50.00;;;;;;5005342;28;20046;-52
2023/02/19 02:06:43;;;;;;;0.20;0.10;;;21.40;49.90;;;;;;5004759;28;20045;-53
2023/02/19 02:11:56;;;;;;;0.25;0.10;;;21.40;50.00;;;;;;5007945;28;20042;-54
2023/02/19 02:14:25;;;;;;;0.57;0.00;;;21.40;50.00;;;;;;5008390;28;20144;-49
2023/02/19 02:17:02;;;;;;;0.22;0.22;;;21.40;49.90;;;;;;5004653;28;20041;-49
2023/02/19 02:19:55;;;;;;;1.52;0.85;;;21.40;50.00;;;;;;5006067;28;20066;-51
2023/02/19 02:22:29;;;;;;;7.47;0.20;;;21.40;50.10;;;;;;5006260;28;20129;-51
2023/02/19 02:25:24;;;;;;;2.40;0.10;;;21.40;50.20;;;;;;5017852;28;20087;-50
2023/02/19 02:28:02;;;;;;;5.78;0.95;;;21.40;50.30;;;;;;5003170;28;20042;-48
2023/02/19 02:30:42;;;;;;;3.72;0.10;;;21.40;50.30;;;;;;5018633;28;20525;-51
2023/02/19 02:33:18;;;;;;;3.25;0.30;;;21.40;50.30;;;;;;5006532;28;20070;-52
2023/02/19 02:35:51;;;;;;;2.55;0.10;;;21.40;50.30;;;;;;5003402;28;20045;-54
2023/02/19 02:38:26;;;;;;;0.95;0.10;;;21.30;50.30;;;;;;5005980;28;20061;-50
2023/02/19 02:40:57;;;;;;;0.50;0.20;;;21.40;50.40;;;;;;5019750;28;20041;-56
2023/02/19 02:43:25;;;;;;;0.10;0.10;;;21.40;50.30;;;;;;5003561;28;20038;-54
2023/02/19 02:45:53;;;;;;;0.40;0.10;;;21.40;50.30;;;;;;5002895;28;20104;-50
2023/02/19 02:48:43;;;;;;;0.10;0.10;;;21.40;50.90;;;;;;5003365;28;20421;-51
2023/02/19 02:51:18;;;;;;;1.70;0.20;;;21.30;50.30;;;;;;5021272;28;20829;-51
2023/02/19 02:57:03;;;;;;;1.20;0.10;;;21.40;50.30;;;;;;4947703;28;20134;-54
2023/02/19 02:59:39;;;;;;;2.28;0.10;;;21.30;50.20;;;;;;4931756;28;20109;-52
2023/02/19 03:02:13;;;;;;;0.20;0.20;;;21.30;50.20;;;;;;4951241;28;20518;-54
2023/02/19 03:07:38;;;;;;;0.00;0.00;;;21.30;50.20;;;;;;4986581;28;20053;-53
2023/02/19 03:10:10;;;;;;;0.28;0.00;;;21.30;50.20;;;;;;4967591;28;20502;-50
2023/02/19 03:21:11;;;;;;;0.10;0.10;;;21.30;50.30;;;;;;4928625;29;20449;-50
2023/02/19 03:26:27;;;;;;;0.63;0.10;;;21.20;50.20;;;;;;4925054;29;20067;-50
2023/02/19 03:31:46;;;;;;;0.10;0.10;;;21.20;50.20;;;;;;4917235;28;20040;-53
2023/02/19 03:34:21;;;;;;;0.47;0.00;;;21.20;50.10;;;;;;4967024;28;20467;-49
2023/02/19 03:36:55;;;;;;;0.50;0.10;;;21.30;50.20;;;;;;5004310;28;20077;-51
2023/02/19 03:39:23;;;;;;;0.68;0.10;;;21.30;50.20;;;;;;4972562;28;20129;-52
2023/02/19 03:41:59;;;;;;;1.05;0.05;;;21.20;50.10;;;;;;4950944;28;20138;-53
2023/02/19 03:44:40;;;;;;;0.35;0.00;;;21.30;50.20;;;;;;4966823;28;20688;-52
2023/02/19 03:47:15;;;;;;;0.47;0.10;;;21.30;50.10;;;;;;4966946;28;20125;-51
2023/02/19 03:49:49;;;;;;;0.08;0.08;;;21.30;50.10;;;;;;4967083;28;20067;-52
2023/02/19 03:52:27;;;;;;;1.35;0.10;;;21.30;50.10;;;;;;4966513;28;20122;-53
2023/02/19 03:55:00;;;;;;;9.85;0.13;;;21.30;50.00;;;;;;4966954;28;20047;-53
2023/02/19 03:57:36;;;;;;;0.30;0.10;;;21.30;50.00;;;;;;5021666;28;20479;-53
2023/02/19 04:00:09;;;;;;;0.38;0.38;;;21.30;50.10;;;;;;5007223;28;20046;-50
2023/02/19 04:02:44;;;;;;;1.95;0.00;;;21.30;50.10;;;;;;5015295;28;20561;-53
2023/02/19 04:05:17;;;;;;;4.00;0.10;;;21.30;50.00;;;;;;5027131;28;20132;-53
2023/02/19 04:07:51;;;;;;;0.20;0.00;;;21.30;50.00;;;;;;5027591;28;20556;-51
2023/02/19 04:10:23;;;;;;;10.15;0.30;;;21.30;50.10;;;;;;5059261;28;20038;-49
2023/02/19 04:12:57;;;;;;;1.40;0.10;;;21.30;50.00;;;;;;5043052;28;20045;-48
2023/02/19 04:15:29;;;;;;;1.50;0.00;;;21.30;50.00;;;;;;5027981;28;20049;-51
2023/02/19 04:18:00;;;;;;;0.17;0.10;;;21.30;50.10;;;;;;5026731;28;20383;-49
2023/02/19 04:20:35;;;;;;;0.38;0.00;;;21.30;50.00;;;;;;5026965;28;20061;-51
2023/02/19 04:23:03;;;;;;;0.30;0.10;;;21.30;50.00;;;;;;5027727;28;20048;-52
2023/02/19 04:25:33;;;;;;;0.10;0.00;;;21.30;50.00;;;;;;5027221;28;20045;-49
2023/02/19 04:28:00;;;;;;;0.30;0.00;;;21.30;50.00;;;;;;5027314;28;20099;-53
2023/02/19 04:30:27;;;;;;;1.00;0.05;;;21.30;49.90;;;;;;5027384;28;20149;-53
2023/02/19 04:32:54;;;;;;;0.57;0.10;;;21.20;49.90;;;;;;5027175;28;20095;-52
2023/02/19 04:35:21;;;;;;;0.85;0.05;;;21.20;49.80;;;;;;5026686;28;20049;-51
2023/02/19 04:37:52;;;;;;;0.00;0.00;;;21.20;49.80;;;;;;5026970;28;20116;-51
2023/02/19 04:40:19;;;;;;;0.35;0.00;;;21.30;49.80;;;;;;5026192;28;20046;-50
2023/02/19 04:42:46;;;;;;;1.60;0.10;;;21.20;49.80;;;;;;5026749;28;20053;-53
2023/02/19 04:45:13;;;;;;;0.08;0.00;;;21.20;49.80;;;;;;5026967;28;20052;-52
2023/02/19 04:47:42;;;;;;;0.70;0.08;;;21.20;49.70;;;;;;5027052;28;20060;-50
2023/02/19 04:50:09;;;;;;;0.20;0.00;;;21.30;49.80;;;;;;5026514;28;20049;-52
2023/02/19 04:52:38;;;;;;;0.38;0.15;;;21.20;49.70;;;;;;5025982;28;20128;-49
2023/02/19 04:55:09;;;;;;;0.70;0.00;;;21.20;49.70;;;;;;5026105;28;20539;-49
2023/02/19 04:57:36;;;;;;;0.95;0.00;;;21.20;49.70;;;;;;5026762;28;20502;-53
2023/02/19 05:00:06;;;;;;;0.95;0.30;;;21.20;49.70;;;;;;5026843;28;20133;-53
2023/02/19 05:02:35;;;;;;;0.30;0.30;;;21.20;49.70;;;;;;5026288;28;20060;-50
2023/02/19 05:05:02;;;;;;;0.47;0.10;;;21.20;49.70;;;;;;5025854;28;20052;-49
2023/02/19 05:07:30;;;;;;;0.30;0.08;;;21.20;49.70;;;;;;5026363;28;20053;-53
2023/02/19 05:09:58;;;;;;;0.70;0.57;;;21.20;49.70;;;;;;5026379;28;20048;-52
2023/02/19 05:12:27;;;;;;;0.85;0.10;;;21.20;49.60;;;;;;5026541;28;20070;-50
2023/02/19 05:14:54;;;;;;;0.90;0.10;;;21.20;49.60;;;;;;5026244;28;20042;-53
2023/02/19 05:17:22;;;;;;;2.08;0.10;;;21.20;49.60;;;;;;5026681;28;20049;-50
2023/02/19 05:19:49;;;;;;;0.68;0.10;;;21.20;49.50;;;;;;5025664;28;20324;-49
2023/02/19 05:22:16;;;;;;;1.75;0.30;;;21.20;49.50;;;;;;5026346;28;20072;-51
2023/02/19 05:24:43;;;;;;;2.75;0.10;;;21.20;49.60;;;;;;5025605;28;20045;-48
2023/02/19 05:27:11;;;;;;;1.40;0.00;;;21.20;49.60;;;;;;5026213;28;20468;-50
2023/02/19 05:29:39;;;;;;;2.33;0.10;;;21.20;49.50;;;;;;5026126;28;20052;-50
2023/02/19 05:32:06;;;;;;;0.13;0.03;;;21.20;49.60;;;;;;5027854;28;20044;-50
2023/02/19 05:34:34;;;;;;;0.20;0.00;;;21.20;49.50;;;;;;5045092;28;20421;-53
2023/02/19 05:37:02;;;;;;;0.82;0.00;;;21.30;49.60;;;;;;5045726;28;20521;-51
2023/02/19 05:39:30;;;;;;;0.00;0.00;;;21.30;49.60;;;;;;5030388;28;20055;-51
2023/02/19 05:42:00;;;;;;;1.77;0.08;;;21.20;49.50;;;;;;5057783;28;20079;-51
2023/02/19 05:44:28;;;;;;;0.28;0.10;;;21.20;49.50;;;;;;5026001;28;20395;-52
2023/02/19 05:46:56;;;;;;;2.47;0.00;;;21.20;49.50;;;;;;5036322;28;20424;-52
2023/02/19 05:49:25;;;;;;;1.13;0.30;;;21.20;49.40;;;;;;5045346;28;20576;-50
2023/02/19 05:51:55;;;;;;;0.10;0.10;;;21.20;49.40;;;;;;5045492;28;20040;-51
2023/02/19 05:54:23;;;;;;;0.88;0.38;;;21.20;49.30;;;;;;5045748;28;20532;-51
2023/02/19 05:56:50;;;;;;;0.38;0.10;;;21.30;49.40;;;;;;5045577;28;20049;-53
2023/02/19 05:59:21;;;;;;;1.00;0.10;;;21.20;49.30;;;;;;5045632;28;20045;-49
2023/02/19 06:01:50;;;;;;;1.25;0.10;;;21.30;49.40;;;;;;5044768;28;20118;-51
2023/02/19 06:04:19;;;;;;;0.90;0.00;;;21.30;49.40;;;;;;5030499;28;20057;-50
2023/02/19 06:06:48;;;;;;;0.05;0.00;;;21.30;49.30;;;;;;5045540;28;20053;-50
2023/02/19 06:09:15;;;;;;;3.10;0.10;;;21.20;49.30;;;;;;5032076;28;20075;-54
2023/02/19 06:11:43;;;;;;;1.35;0.47;;;21.20;49.30;;;;;;5025756;28;20046;-49
2023/02/19 06:14:13;;;;;;;0.30;0.10;;;21.30;49.30;;;;;;5025422;28;20045;-49
2023/02/19 06:16:41;;;;;;;2.10;1.20;;;21.20;49.30;;;;;;5025154;28;20136;-50
2023/02/19 06:19:08;;;;;;;0.80;0.00;;;21.20;49.20;;;;;;5024864;28;20046;-48
2023/02/19 06:21:37;;;;;;;0.10;0.00;;;21.20;49.20;;;;;;5025353;28;20068;-49
2023/02/19 06:24:06;;;;;;;0.35;0.10;;;21.20;49.20;;;;;;5025255;28;20048;-51
2023/02/19 06:26:34;;;;;;;0.80;0.03;;;21.20;49.20;;;;;;5025444;28;20085;-52
2023/02/19 06:29:02;;;;;;;0.50;0.00;;;21.20;49.20;;;;;;5027691;28;20072;-50
2023/02/19 06:31:33;;;;;;;0.20;0.00;;;21.20;49.10;;;;;;5025145;28;20059;-50
2023/02/19 06:34:04;;;;;;;2.08;0.00;;;21.20;49.10;;;;;;5025097;28;20460;-48
2023/02/19 06:36:35;;;;;;;0.80;0.00;;;21.20;49.10;;;;;;5026286;28;20837;-52
2023/02/19 06:39:05;;;;;;;0.10;0.10;;;21.20;49.00;;;;;;5029174;28;20049;-48
2023/02/19 06:41:33;;;;;;;0.20;0.10;;;21.20;49.00;;;;;;5029159;28;20041;-48
2023/02/19 06:44:02;;;;;;;0.40;0.00;;;21.20;49.00;;;;;;5029403;28;20136;-49
2023/02/19 06:46:30;;;;;;;0.38;0.05;;;21.20;49.00;;;;;;5028888;28;20045;-48
2023/02/19 06:48:57;;;;;;;1.63;0.00;;;21.20;49.00;;;;;;5028925;28;20127;-53
2023/02/19 06:51:28;;;;;;;0.35;0.00;;;21.20;49.00;;;;;;5028757;28;20045;-50
2023/02/19 06:54:02;;;;;;;0.10;0.10;;;21.20;49.00;;;;;;5029117;28;20049;-53
2023/02/19 06:56:33;;;;;;;1.15;0.08;;;21.20;49.00;;;;;;5029186;28;20046;-53
2023/02/19 06:59:02;;;;;;;0.50;0.10;;;21.20;49.00;;;;;;5029019;28;20045;-51
2023/02/19 07:01:30;;;;;;;1.23;0.08;;;21.20;49.00;;;;;;5028568;28;20076;-50
2023/02/19 07:03:58;;;;;;;0.20;0.10;;;21.20;48.90;;;;;;5028470;28;20509;-49
2023/02/19 07:06:29;;;;;;;0.13;0.10;;;21.20;48.90;;;;;;5028691;28;20088;-49
2023/02/19 07:08:58;;;;;;;1.27;0.08;;;21.20;48.90;;;;;;5028530;28;20509;-53
2023/02/19 07:11:32;;;;;;;0.65;0.22;;;21.20;48.90;;;;;;5028939;28;20053;-49
2023/02/19 07:14:03;;;;;;;1.27;0.13;;;21.20;48.90;;;;;;5028636;28;20058;-50
2023/02/19 07:16:31;;;;;;;0.60;0.20;;;21.20;48.80;;;;;;5029063;28;20049;-52
2023/02/19 07:18:59;;;;;;;0.85;0.50;;;21.20;48.80;;;;;;5028505;28;20092;-52
2023/02/19 07:21:28;;;;;;;2.85;0.10;;;21.20;48.80;;;;;;5025298;28;20064;-52
2023/02/19 07:23:55;;;;;;;2.58;0.05;;;21.20;48.90;;;;;;5028435;28;20043;-52
2023/02/19 07:26:23;;;;;;;4.10;0.10;;;21.20;48.90;;;;;;5028476;28;20091;-54
2023/02/19 07:28:52;;;;;;;1.48;0.20;;;21.20;48.90;;;;;;5028295;28;20038;-54
2023/02/19 07:31:21;;;;;;;4.28;0.10;;;21.20;49.00;;;;;;5027159;28;20038;-53
2023/02/19 07:33:48;;;;;;;1.42;0.10;;;21.20;49.00;;;;;;5030475;28;20034;-55
2023/02/19 07:36:16;;;;;;;1.40;0.30;;;21.20;49.00;;;;;;5028571;28;20486;-59
2023/02/19 07:38:44;;;;;;;1.17;0.10;;;21.20;49.10;;;;;;5026873;28;20037;-52
2023/02/19 07:41:11;;;;;;;7.65;0.10;;;21.20;49.20;;;;;;5028112;28;20486;-53
2023/02/19 07:43:39;;;;;;;4.97;0.20;;;21.20;49.20;;;;;;5034456;28;20037;-55
2023/02/19 07:46:09;;;;;;;1.85;0.40;;;21.20;49.20;;;;;;5020022;28;20060;-53
2023/02/19 07:48:37;;;;;;;4.35;0.10;;;21.20;49.20;;;;;;5042046;28;20573;-60
2023/02/19 07:51:06;;;;;;;3.75;0.15;;;21.20;49.30;;;;;;5028237;28;20041;-54
2023/02/19 07:53:34;;;;;;;3.13;0.10;;;21.20;49.30;;;;;;5028543;28;20049;-56
2023/02/19 07:56:04;;;;;;;1.05;0.10;;;21.20;49.40;;;;;;5027924;28;20041;-54
2023/02/19 07:58:31;;;;;;;3.25;0.10;;;21.30;49.40;;;;;;5027645;28;20132;-54
2023/02/19 08:01:09;;;;;;;1.58;0.50;;;21.30;49.50;;;;;;5028014;28;20133;-55
2023/02/19 08:03:35;;;;;;;2.15;0.20;;;21.30;49.40;;;;;;5027314;28;20061;-55
2023/02/19 08:06:02;;;;;;;2.40;0.13;;;21.30;49.40;;;;;;5027388;28;20123;-53
2023/02/19 08:08:30;;;;;;;2.67;0.30;;;21.30;49.90;;;;;;5024683;28;20502;-54
2023/02/19 08:13:48;;;;;;;3.33;0.95;;;21.30;49.30;;;;;;5027939;28;20075;-53
2023/02/19 08:16:18;;;;;;;0.30;0.10;;;21.30;49.40;;;;;;5027585;28;20045;-55
2023/02/19 08:18:47;;;;;;;2.22;0.30;;;21.30;49.40;;;;;;5027885;28;20382;-50
2023/02/19 08:21:16;;;;;;;3.72;0.30;;;21.30;49.30;;;;;;5027277;28;20044;-53
2023/02/19 08:23:45;;;;;;;3.03;0.40;;;21.30;50.00;;;;;;5027791;28;20065;-51
2023/02/19 08:26:12;;;;;;;3.70;0.20;;;21.30;49.30;;;;;;5030646;28;20054;-51
2023/02/19 08:28:39;;;;;;;0.77;0.10;;;21.30;49.30;;;;;;5027650;28;20069;-53
2023/02/19 08:31:08;;;;;;;15.15;0.55;;;21.40;49.40;;;;;;5026664;28;20048;-60
2023/02/19 08:33:39;;;;;;;14.85;0.77;;;21.40;50.00;;;;;;5027960;28;20037;-60
2023/02/19 08:36:08;;;;;;;4.55;0.13;;;21.30;49.40;;;;;;5011617;28;20823;-73
2023/02/19 08:38:37;;;;;;;11.45;1.38;;;21.30;49.50;;;;;;5028848;28;20785;-74
2023/02/19 08:41:06;;;;;;;12.55;0.93;;;21.40;49.50;;;;;;5028915;28;20081;-75
2023/02/19 08:43:33;;;;;;;6.82;0.90;;;21.40;49.40;;;;;;5029303;28;20037;-73
2023/02/19 08:46:00;;;;;;;8.50;0.35;;;21.40;49.40;;;;;;5029332;28;20117;-75
2023/02/19 08:48:28;;;;;;;8.07;0.30;;;21.40;49.30;;;;;;5029328;28;20137;-75
2023/02/19 08:50:59;;;;;;;12.68;0.50;;;21.40;49.40;;;;;;5030567;28;20667;-76
2023/02/19 08:53:26;;;;;;;4.43;1.08;;;21.40;49.30;;;;;;5030644;28;20064;-75
2023/02/19 08:55:53;;;;;;;5.38;0.30;;;21.40;49.30;;;;;;5033185;28;20049;-74
2023/02/19 08:58:25;;;;;;;6.13;0.60;;;21.40;49.50;;;;;;5064287;28;20148;-71
2023/02/19 09:00:52;;;;;;;10.50;0.95;;;21.40;49.60;;;;;;5028321;28;20057;-69
2023/02/19 09:03:19;;;;;;;3.53;0.32;;;21.40;49.60;;;;;;5028024;28;20063;-71
2023/02/19 09:05:46;;;;;;;6.90;0.95;;;21.40;49.60;;;;;;5027957;28;20052;-71
2023/02/19 09:08:16;;;;;;;4.13;0.45;;;21.40;49.60;;;;;;5059543;28;20041;-71
2023/02/19 09:10:56;;;;;;;3.67;0.25;;;21.50;49.70;;;;;;5027019;28;20132;-70
2023/02/19 09:13:24;;;;;;;1.65;0.20;;;21.50;49.60;;;;;;5027807;28;20049;-70
2023/02/19 09:15:51;;;;;;;4.70;1.63;;;21.50;49.50;;;;;;5027588;28;20051;-74
2023/02/19 09:18:18;;;;;;;5.95;0.20;;;21.50;49.50;;;;;;5027308;28;20383;-67
2023/02/19 09:20:46;;;;;;;3.88;1.10;;;21.50;49.40;;;;;;5025245;28;20095;-58
2023/02/19 09:23:13;;;;;;;11.20;0.35;;;21.50;49.50;;;;;;5026348;28;20053;-58
2023/02/19 09:25:41;;;;;;;4.28;0.40;;;21.50;49.50;;;;;;5025811;28;20052;-58
2023/02/19 09:28:08;;;;;;;5.25;0.10;;;21.50;50.00;;;;;;5026680;28;20108;-59
2023/02/19 09:30:35;;;;;;;6.10;0.32;;;21.50;49.40;;;;;;5026370;28;20047;-64
2023/02/19 09:33:05;;;;;;;6.93;0.32;;;21.50;49.50;;;;;;5025982;28;20045;-64
2023/02/19 09:35:32;;;;;;;11.90;0.85;;;21.60;49.50;;;;;;5026492;28;20414;-65
2023/02/19 09:38:00;;;;;;;6.88;0.50;;;21.60;49.50;;;;;;5026181;28;20038;-65
2023/02/19 09:40:29;;;;;;;8.82;0.47;;;21.60;49.40;;;;;;5037374;28;20051;-66
2023/02/19 09:42:58;;;;;;;4.45;0.63;;;21.60;49.40;;;;;;5046202;28;20058;-67
2023/02/19 09:45:26;;;;;;;4.30;0.50;;;21.60;49.30;;;;;;5046764;28;20048;-67
2023/02/19 09:47:55;;;;;;;8.73;0.57;;;21.60;49.30;;;;;;5046414;28;20520;-67
2023/02/19 09:50:30;;;;;;;4.22;0.15;;;21.60;49.20;;;;;;5046417;28;20040;-66
2023/02/19 09:53:00;;;;;;;1.13;0.88;;;21.60;49.00;;;;;;5046706;28;20477;-66
2023/02/19 09:55:31;;;;;;;4.97;0.68;;;21.60;48.90;;;;;;5046201;28;20048;-66
2023/02/19 09:58:03;;;;;;;10.57;0.82;;;21.70;49.00;;;;;;5046301;28;20041;-68
2023/02/19 10:00:33;;;;;;;5.80;0.65;;;21.70;48.90;;;;;;5046655;28;20037;-67
2023/02/19 10:03:05;;;;;;;4.47;0.30;;;21.60;48.70;;;;;;5036172;28;20045;-67
2023/02/19 10:05:33;;;;;;;3.22;0.40;;;21.60;48.60;;;;;;5026962;28;20061;-66
2023/02/19 10:08:04;;;;;;;1.98;0.32;;;21.70;48.60;;;;;;5026528;28;20410;-67
2023/02/19 10:10:33;;;;;;;2.83;0.57;;;21.70;48.60;;;;;;5026555;28;20069;-67
2023/02/19 10:13:17;;;;;;;1.83;0.20;;;21.70;48.40;;;;;;5026249;28;20049;-67
2023/02/19 10:15:48;;;;;;;3.83;0.47;;;21.70;48.40;;;;;;5026627;28;20137;-67
2023/02/19 10:18:22;;;;;;;1.85;0.68;;;21.70;48.30;;;;;;5026752;28;20068;-67
2023/02/19 10:20:51;;;;;;;1.48;0.30;;;21.70;48.20;;;;;;5024812;28;20108;-67
2023/02/19 10:23:19;;;;;;;1.27;0.20;;;21.70;48.10;;;;;;5024721;28;20391;-67
2023/02/19 10:25:49;;;;;;;4.68;0.20;;;21.70;48.10;;;;;;5026098;28;20056;-68
2023/02/19 10:28:20;;;;;;;1.02;0.30;;;21.70;48.00;;;;;;5027637;28;20525;-67
2023/02/19 10:30:52;;;;;;;0.88;0.50;;;21.70;47.90;;;;;;5046664;28;20037;-67
2023/02/19 10:33:20;;;;;;;1.50;0.10;;;21.70;47.90;;;;;;5034188;28;20580;-67
2023/02/19 10:35:55;;;;;;;1.60;0.32;;;21.70;47.70;;;;;;5026537;28;20091;-68
2023/02/19 10:38:27;;;;;;;4.18;0.40;;;21.70;47.60;;;;;;5024392;28;20056;-67
2023/02/19 10:41:02;;;;;;;3.70;0.40;;;21.70;47.70;;;;;;5026219;28;20055;-67
2023/02/19 10:43:32;;;;;;;2.20;0.30;;;21.70;47.60;;;;;;5026422;28;20038;-68
2023/02/19 10:46:06;;;;;;;2.13;0.40;;;21.70;47.60;;;;;;5026143;28;20525;-67
2023/02/19 10:48:36;;;;;;;4.78;0.60;;;21.70;47.40;;;;;;5026291;28;20136;-67
2023/02/19 10:51:08;;;;;;;1.65;0.15;;;21.70;47.40;;;;;;5026148;28;20103;-67
2023/02/19 10:53:43;;;;;;;0.80;0.40;;;21.70;47.30;;;;;;5025839;28;20041;-67
2023/02/19 10:56:13;;;;;;;1.25;0.20;;;21.70;47.30;;;;;;5025810;28;20041;-67
2023/02/19 10:58:43;;;;;;;2.25;0.30;;;21.70;47.20;;;;;;5025790;28;20569;-68
2023/02/19 11:01:14;;;;;;;4.68;1.05;;;21.70;47.10;;;;;;5026128;28;20048;-67
2023/02/19 11:03:41;;;;;;;2.33;0.35;;;21.70;47.10;;;;;;5025767;28;20432;-66
2023/02/19 11:06:11;;;;;;;0.65;0.10;;;21.70;47.10;;;;;;5025570;28;20037;-67
2023/02/19 11:08:56;;;;;;;2.78;0.50;;;21.70;47.00;;;;;;5025779;28;20159;-68
2023/02/19 11:11:27;;;;;;;3.50;0.55;;;21.80;46.90;;;;;;5026449;28;20042;-68
2023/02/19 11:13:57;;;;;;;3.58;0.40;;;21.70;46.90;;;;;;5025808;28;20045;-68
2023/02/19 11:16:34;;;;;;;2.55;0.30;;;21.70;46.90;;;;;;5026016;28;20152;-67
2023/02/19 11:19:02;;;;;;;0.60;0.55;;;21.70;46.80;;;;;;5025716;28;20045;-66
2023/02/19 11:21:31;;;;;;;2.75;0.20;;;21.70;46.70;;;;;;5025535;28;20072;-67
2023/02/19 11:24:01;;;;;;;1.80;0.45;;;21.70;46.70;;;;;;5027532;28;20041;-67
2023/02/19 11:26:33;;;;;;;1.17;0.82;;;21.80;46.70;;;;;;5029184;28;20510;-67
2023/02/19 11:29:13;;;;;;;2.85;0.30;;;21.80;46.60;;;;;;5029267;28;20053;-67
2023/02/19 11:31:40;;;;;;;1.55;0.30;;;21.80;46.60;;;;;;5029184;28;20109;-67
2023/02/19 11:34:33;;;;;;;1.50;0.30;;;21.80;46.60;;;;;;5029144;28;20041;-67
2023/02/19 11:37:14;;;;;;;2.13;0.10;;;21.80;46.50;;;;;;5039065;28;20045;-69
2023/02/19 11:39:43;;;;;;;0.98;0.13;;;21.80;46.50;;;;;;5032087;28;20819;-67
2023/02/19 11:42:36;;;;;;;1.00;0.30;;;21.80;47.10;;;;;;5032654;28;20051;-68
2023/02/19 11:45:19;;;;;;;2.35;0.73;;;21.80;46.40;;;;;;5048950;28;20148;-68
2023/02/19 11:48:04;;;;;;;1.55;0.30;;;21.80;46.40;;;;;;5045556;28;20034;-67
2023/02/19 11:50:46;;;;;;;3.30;0.20;;;21.80;46.30;;;;;;5048580;28;20144;-67
2023/02/19 11:53:21;;;;;;;1.60;0.35;;;21.80;46.40;;;;;;5048825;28;20080;-67
2023/02/19 11:56:02;;;;;;;0.85;0.20;;;21.80;46.40;;;;;;5048678;28;20033;-66
2023/02/19 11:58:51;;;;;;;3.22;0.20;;;21.80;46.30;;;;;;5048296;28;20509;-67
2023/02/19 12:01:27;;;;;;;0.47;0.20;;;21.80;46.30;;;;;;5048659;28;20099;-67
2023/02/19 12:04:22;;;;;;;2.53;0.32;;;21.80;46.30;;;;;;5030714;28;20049;-67
2023/02/19 12:07:02;;;;;;;3.25;0.43;;;21.80;46.20;;;;;;5005925;28;20046;-68
2023/02/19 12:09:46;;;;;;;1.65;0.63;;;21.80;46.20;;;;;;5006067;28;20109;-68
2023/02/19 12:12:29;;;;;;;0.50;0.22;;;21.70;46.30;;;;;;5006037;28;20399;-67
2023/02/19 12:15:13;;;;;;;4.22;0.45;;;21.80;46.20;;;;;;5006053;28;20086;-68
2023/02/19 12:18:03;;;;;;;1.30;0.20;;;21.80;46.10;;;;;;5005767;28;20061;-68
2023/02/19 12:20:36;;;;;;;1.50;0.30;;;21.80;46.00;;;;;;5003855;28;20048;-68
2023/02/19 12:23:27;;;;;;;2.78;0.35;;;21.80;46.60;;;;;;5005897;28;20045;-68
2023/02/19 12:26:00;;;;;;;3.10;0.30;;;21.80;45.90;;;;;;5005682;28;20054;-68
2023/02/19 12:28:48;;;;;;;2.47;0.20;;;21.80;45.90;;;;;;5005626;28;20649;-68
2023/02/19 12:31:43;;;;;;;0.95;0.47;;;21.80;45.80;;;;;;5005576;28;20049;-68
2023/02/19 12:34:35;;;;;;;0.98;0.38;;;21.80;45.80;;;;;;5003941;28;20585;-68
2023/02/19 12:37:15;;;;;;;1.80;0.40;;;21.80;45.80;;;;;;4985757;28;20046;-67
2023/02/19 12:39:47;;;;;;;1.60;0.20;;;21.80;46.00;;;;;;5002407;28;20049;-68
2023/02/19 12:42:39;;;;;;;1.60;0.10;;;21.80;45.90;;;;;;5005303;28;20141;-67
2023/02/19 12:45:16;;;;;;;2.50;0.30;;;21.90;45.90;;;;;;5026407;28;20156;-68
2023/02/19 12:47:46;;;;;;;1.42;0.20;;;21.90;45.80;;;;;;5027504;28;20049;-68
2023/02/19 12:50:20;;;;;;;0.68;0.20;;;21.90;45.60;;;;;;5027882;28;20455;-68
2023/02/19 12:52:51;;;;;;;0.65;0.28;;;21.90;45.40;;;;;;5027707;28;20126;-66
2023/02/19 12:55:24;;;;;;;0.73;0.45;;;22.00;45.50;;;;;;5027682;28;20141;-69
2023/02/19 12:57:52;;;;;;;0.68;0.10;;;22.00;45.40;;;;;;5027758;28;20498;-70
2023/02/19 13:00:31;;;;;;;1.33;0.32;;;22.00;45.50;;;;;;5027513;28;20040;-69
2023/02/19 13:03:02;;;;;;;1.10;0.20;;;22.10;45.50;;;;;;5027241;28;20053;-69
2023/02/19 13:05:42;;;;;;;2.22;0.45;;;22.10;45.50;;;;;;5027862;28;20072;-69
2023/02/19 13:08:15;;;;;;;2.30;0.25;;;22.10;45.40;;;;;;5026768;28;20048;-69
2023/02/19 13:10:54;;;;;;;2.80;0.40;;;22.10;45.30;;;;;;5021730;28;20042;-70
2023/02/19 13:13:31;;;;;;;0.65;0.20;;;22.10;45.30;;;;;;5022020;28;20048;-69
2023/02/19 13:16:08;;;;;;;0.98;0.20;;;22.20;45.40;;;;;;5007133;28;20105;-70
2023/02/19 13:18:46;;;;;;;3.60;0.80;;;22.20;45.30;;;;;;5005178;28;20061;-66
2023/02/19 13:24:02;;;;;;;;;;;22.30;45.30;;;;;;5018249;28;20111;-68
2023/02/19 13:26:47;;;;;;;0.73;0.10;;;22.30;45.30;;;;;;5023441;28;19924;-68
2023/02/19 13:29:41;;;;;;;2.22;0.20;;;22.30;45.40;;;;;;5027257;28;20426;-67
2023/02/19 13:32:39;;;;;;;1.23;0.20;;;22.40;45.20;;;;;;5026836;28;20071;-67
2023/02/19 13:35:21;;;;;;;1.17;0.20;;;22.40;45.20;;;;;;5027252;28;20049;-68
2023/02/19 13:37:51;;;;;;;2.72;0.30;;;22.40;45.10;;;;;;5026841;28;20053;-67
2023/02/19 13:40:25;;;;;;;0.55;0.20;;;22.50;45.20;;;;;;5027053;28;20084;-67